Ana Sayfa
METAR-TAF:

METAR-TAF

Havaalanları :

Caracas, Venezuela

Enlem: 10-36N, Boylam: 066-59W, yükseklik: 43 m

Güncel hava durumu gözlemi

Rapor saat 09:00 UTC de 6 dakika önce yapıldı.
Sakin rüzgar
Sıcaklık 23°C
Nem 89%
Basınç 1011 hPa
Görüş mesafesi 10 km veya daha fazla
1600 ft yükseklikte az bulutlu

METAR: SVMI 190900Z 00000KT 9999 FEW016 23/21 Q1011

Saat: 05:06 (09:06 UTC)

Tahmin

Rapor saat 04:00 UTC de 5 saat ve 6 dakika önce yapıldı.
Ayın 19'si saat 06 UTC'den ayın 20'si saat 06 UTC'ye kadar geçerli Tahmin
Rüzgar doğudan 7 kt
Görüş mesafesi 10 km veya daha fazla
1600 ft yükseklikte az bulutlu
Dönüşüyor
ayın 19'si saat 08 UTC'den ayın 19'si saat 12 UTC'ye kadar
Rüzgar doğudan 10 kt
1600 ft yükseklikte parçalı çok bulutlu

TAF: SVMI 190400Z 1906/2006 09007KT 9999 FEW016 TX32/19Z TN24/09Z BECMG 1908/1912 09010KT BKN016

4.000'den fazla havaalanı için hava durumu gözlemleri ve tahminleri (METAR ve TAF raporları).

Kullanılabilir istasyonlar harita üzerinde sarı ve kırmızı noktalarla gösterilir.

İstasyonun adını görmek için fareyi noktanın üzerinde gezdirin.

Sonrasında hava gözlem ve tahminlerini görmek için tıklayın.

Haritayı değiştirmek için: yaklaştırmak için siyah artı işaretli yeşil düğmeye ve uzaklaştırmak için de eksi işaretli düğmeye hızla tıklayın; bitişik haritalar için yeşil okları kullanın.


METAR-TAF: